Time;durP1;ratioP1;P1;durP2;ratioP2;P2;SDS_P1;SDS_P2;PMS_P1;PMS_P2;Temp;Humidity;BMP_temperature;BMP_pressure;BME280_temperature;BME280_humidity;BME280_pressure;Samples;Min_cycle;Max_cycle;Signal;HPM_P1;HPM_P2
2022/01/26 00:07:53;;;;;;;105.80;52.93;;;;;;;;;;4985214;28;20030;-61
2022/01/26 00:10:19;;;;;;;102.53;53.37;;;;;;;;;;4980234;28;20045;-61
2022/01/26 00:12:45;;;;;;;108.30;54.03;;;;;;;;;;4990012;28;20066;-61
2022/01/26 00:15:11;;;;;;;102.20;52.87;;;;;;;;;;5001912;28;20034;-62
2022/01/26 00:17:38;;;;;;;100.57;50.97;;;;;;;;;;5014889;28;20099;-62
2022/01/26 00:38:34;;;;;;;104.88;52.70;;;;;;;;;;5010599;28;20126;-62
2022/01/26 00:41:09;;;;;;;107.37;54.20;;;;;;;;;;5040024;28;20034;-62
2022/01/26 00:43:36;;;;;;;106.03;53.17;;;;;;;;;;5009346;28;20073;-62
2022/01/26 00:46:05;;;;;;;104.63;55.00;;;;;;;;;;5007436;28;20050;-62
2022/01/26 00:48:32;;;;;;;109.63;53.23;;;;;;;;;;4993872;28;20108;-62
2022/01/26 00:51:02;;;;;;;116.87;55.57;;;;;;;;;;4988621;28;20054;-62
2022/01/26 00:53:34;;;;;;;108.83;55.93;;;;;;;;;;4988988;28;20488;-62
2022/01/26 00:56:01;;;;;;;108.90;54.13;;;;;;;;;;5036509;28;20088;-62
2022/01/26 00:58:27;;;;;;;101.73;51.67;;;;;;;;;;4993135;28;20041;-62
2022/01/26 01:00:54;;;;;;;110.83;54.03;;;;;;;;;;4999892;28;20073;-62
2022/01/26 01:03:21;;;;;;;100.90;52.23;;;;;;;;;;5009465;28;20183;-62
2022/01/26 01:08:50;;;;;;;104.13;54.17;;;;;;;;;;4989224;28;20444;-62
2022/01/26 01:11:17;;;;;;;106.23;55.00;;;;;;;;;;4987195;28;20038;-62
2022/01/26 01:13:43;;;;;;;107.67;52.27;;;;;;;;;;4991340;28;20038;-62
2022/01/26 01:16:16;;;;;;;101.40;51.57;;;;;;;;;;4995025;28;20104;-62
2022/01/26 01:34:13;;;;;;;100.83;49.40;;;;;;;;;;4993734;28;20038;-62
2022/01/26 01:36:41;;;;;;;118.50;53.50;;;;;;;;;;4994492;28;20045;-62
2022/01/26 01:39:07;;;;;;;111.17;51.47;;;;;;;;;;5027889;28;20034;-62
2022/01/26 01:41:38;;;;;;;106.30;52.50;;;;;;;;;;4988732;28;20129;-63
2022/01/26 01:44:04;;;;;;;110.50;53.97;;;;;;;;;;4989630;28;20046;-62
2022/01/26 01:46:30;;;;;;;113.57;54.40;;;;;;;;;;4986137;28;20061;-62
2022/01/26 01:48:56;;;;;;;110.07;53.53;;;;;;;;;;4995651;28;20034;-62
2022/01/26 01:51:29;;;;;;;114.70;53.80;;;;;;;;;;4991340;28;20170;-62
2022/01/26 01:53:55;;;;;;;108.30;52.27;;;;;;;;;;5000424;28;20046;-62
2022/01/26 01:56:25;;;;;;;107.23;52.67;;;;;;;;;;4990047;28;20073;-62
2022/01/26 01:58:52;;;;;;;109.43;53.60;;;;;;;;;;4990360;28;20041;-62
2022/01/26 02:01:18;;;;;;;114.80;54.63;;;;;;;;;;4996818;28;20030;-62
2022/01/26 02:03:44;;;;;;;103.80;50.97;;;;;;;;;;5009547;28;20041;-61
2022/01/26 02:06:10;;;;;;;101.80;50.77;;;;;;;;;;5008270;28;20041;-62
2022/01/26 02:08:36;;;;;;;103.60;53.20;;;;;;;;;;5009245;28;20034;-62
2022/01/26 02:11:06;;;;;;;105.23;53.37;;;;;;;;;;5007377;28;20373;-62
2022/01/26 02:13:40;;;;;;;111.17;54.50;;;;;;;;;;5004869;28;20069;-62
2022/01/26 02:16:15;;;;;;;112.68;52.88;;;;;;;;;;4992594;28;20045;-62
2022/01/26 02:59:37;;;;;;;107.17;51.40;;;;;;;;;;5000045;28;20049;-62
2022/01/26 03:02:08;;;;;;;109.25;51.58;;;;;;;;;;5004698;28;20121;-62
2022/01/26 03:04:47;;;;;;;106.97;52.97;;;;;;;;;;5007567;28;20081;-62
2022/01/26 03:09:53;;;;;;;107.80;49.77;;;;;;;;;;5006599;28;20037;-62
2022/01/26 03:12:29;;;;;;;114.97;53.10;;;;;;;;;;5004502;28;20088;-62
2022/01/26 03:15:00;;;;;;;108.40;53.57;;;;;;;;;;5038796;28;20488;-62
2022/01/26 03:20:14;;;;;;;92.55;40.97;;;;;;;;;;5000256;28;20092;-61
2022/01/26 03:28:38;;;;;;;110.38;53.03;;;;;;;;;;4996754;28;20049;-62
2022/01/26 03:36:28;;;;;;;117.80;54.00;;;;;;;;;;4991977;28;20058;-62
2022/01/26 03:39:02;;;;;;;108.33;52.30;;;;;;;;;;5020752;28;20467;-62
2022/01/26 03:43:54;;;;;;;116.27;56.93;;;;;;;;;;5011631;28;20054;-62
2022/01/26 03:46:20;;;;;;;109.20;54.50;;;;;;;;;;5009203;28;20050;-61
2022/01/26 03:48:46;;;;;;;113.10;55.70;;;;;;;;;;4996631;28;20088;-62
2022/01/26 03:51:12;;;;;;;115.57;54.33;;;;;;;;;;4993455;28;20062;-62
2022/01/26 03:53:38;;;;;;;128.97;58.17;;;;;;;;;;5014918;28;20554;-61
2022/01/26 03:56:04;;;;;;;122.87;55.13;;;;;;;;;;5015421;28;20046;-62
2022/01/26 03:58:30;;;;;;;114.67;55.73;;;;;;;;;;5010832;28;20084;-62
2022/01/26 04:00:56;;;;;;;117.23;54.60;;;;;;;;;;5012023;28;20034;-62
2022/01/26 04:03:22;;;;;;;120.90;56.43;;;;;;;;;;5008886;28;20068;-62
2022/01/26 04:05:48;;;;;;;114.83;56.10;;;;;;;;;;5039342;28;20038;-63
2022/01/26 04:08:20;;;;;;;120.27;55.87;;;;;;;;;;5002554;28;20034;-63
2022/01/26 04:11:21;;;;;;;117.63;54.37;;;;;;;;;;5000233;28;20038;-62
2022/01/26 04:13:36;;;;;;;112.07;53.03;;;;;;;;;;5009904;28;20041;-62
2022/01/26 04:16:02;;;;;;;106.20;54.37;;;;;;;;;;5007049;28;21086;-63
2022/01/26 04:18:34;;;;;;;113.20;54.30;;;;;;;;;;5008816;28;20042;-62
2022/01/26 04:21:07;;;;;;;119.10;55.33;;;;;;;;;;5040043;28;20463;-62
2022/01/26 04:23:50;;;;;;;114.53;53.90;;;;;;;;;;5012865;28;20149;-62
2022/01/26 04:26:20;;;;;;;107.83;53.23;;;;;;;;;;5007633;28;20041;-62
2022/01/26 04:28:55;;;;;;;108.17;53.13;;;;;;;;;;5011143;28;20046;-62
2022/01/26 04:31:22;;;;;;;118.07;55.10;;;;;;;;;;5017422;28;20495;-62
2022/01/26 04:33:49;;;;;;;109.67;53.80;;;;;;;;;;5008753;28;20062;-62
2022/01/26 04:36:22;;;;;;;121.90;56.13;;;;;;;;;;5009057;28;20084;-62
2022/01/26 04:38:53;;;;;;;114.77;53.23;;;;;;;;;;5023910;28;20395;-62
2022/01/26 04:43:55;;;;;;;110.53;55.27;;;;;;;;;;4999218;28;20061;-62
2022/01/26 04:46:21;;;;;;;115.57;54.57;;;;;;;;;;5016464;28;20045;-62
2022/01/26 04:48:47;;;;;;;113.87;54.63;;;;;;;;;;5025671;28;20050;-62
2022/01/26 04:51:14;;;;;;;119.00;54.30;;;;;;;;;;4990008;28;20054;-62
2022/01/26 04:53:40;;;;;;;125.03;56.20;;;;;;;;;;5005103;28;20043;-62
2022/01/26 04:56:06;;;;;;;114.00;54.67;;;;;;;;;;4989016;28;20043;-62
2022/01/26 04:58:32;;;;;;;112.40;53.57;;;;;;;;;;5002567;28;20050;-62
2022/01/26 05:00:59;;;;;;;117.33;55.33;;;;;;;;;;4990905;28;20038;-62
2022/01/26 05:03:25;;;;;;;124.67;56.47;;;;;;;;;;4993445;28;20486;-63
2022/01/26 05:05:51;;;;;;;121.97;57.13;;;;;;;;;;4993262;28;20036;-63
2022/01/26 05:08:17;;;;;;;122.23;57.33;;;;;;;;;;4997129;28;20038;-63
2022/01/26 05:10:44;;;;;;;121.50;57.93;;;;;;;;;;5001981;28;20482;-62
2022/01/26 05:13:13;;;;;;;126.10;56.93;;;;;;;;;;5008504;28;20038;-63
2022/01/26 05:15:39;;;;;;;121.53;56.03;;;;;;;;;;4988715;28;20512;-63
2022/01/26 05:18:06;;;;;;;125.97;59.10;;;;;;;;;;4996217;28;20041;-63
2022/01/26 05:20:33;;;;;;;134.27;59.30;;;;;;;;;;4989537;28;20060;-63
2022/01/26 05:22:59;;;;;;;123.00;57.07;;;;;;;;;;5014813;28;20090;-61
2022/01/26 05:25:25;;;;;;;126.57;57.17;;;;;;;;;;4985285;28;20042;-60
2022/01/26 05:27:51;;;;;;;127.17;61.07;;;;;;;;;;4998200;28;20512;-61
2022/01/26 05:30:17;;;;;;;127.00;58.80;;;;;;;;;;5010007;28;20053;-61
2022/01/26 05:32:44;;;;;;;125.53;57.67;;;;;;;;;;4991878;28;20046;-60
2022/01/26 05:35:10;;;;;;;123.90;58.13;;;;;;;;;;5001896;28;20069;-61
2022/01/26 05:37:36;;;;;;;133.40;59.23;;;;;;;;;;4985169;28;20039;-61
2022/01/26 05:40:03;;;;;;;131.33;58.47;;;;;;;;;;5001180;28;20056;-60
2022/01/26 05:42:30;;;;;;;126.70;58.13;;;;;;;;;;5005342;28;20087;-61
2022/01/26 05:45:03;;;;;;;133.50;58.00;;;;;;;;;;5007912;28;20046;-61
2022/01/26 05:47:31;;;;;;;137.60;60.17;;;;;;;;;;5007243;28;20054;-61
2022/01/26 05:49:58;;;;;;;131.23;59.67;;;;;;;;;;5013244;28;20388;-61
2022/01/26 05:52:24;;;;;;;140.03;59.37;;;;;;;;;;5008194;28;20046;-61
2022/01/26 05:54:50;;;;;;;129.17;57.50;;;;;;;;;;5007936;28;20073;-61
2022/01/26 05:57:16;;;;;;;139.50;62.57;;;;;;;;;;5007955;28;20428;-61
2022/01/26 05:59:42;;;;;;;140.40;62.47;;;;;;;;;;5008878;28;20088;-61
2022/01/26 06:02:08;;;;;;;138.67;59.70;;;;;;;;;;5000892;28;20125;-61
2022/01/26 06:04:34;;;;;;;143.33;63.10;;;;;;;;;;5017624;28;20042;-61
2022/01/26 06:07:00;;;;;;;137.03;63.07;;;;;;;;;;5006891;28;20033;-62
2022/01/26 06:09:26;;;;;;;136.27;61.67;;;;;;;;;;4990511;28;20057;-62
2022/01/26 06:11:52;;;;;;;139.10;58.57;;;;;;;;;;5023674;28;20481;-61
2022/01/26 06:14:18;;;;;;;133.50;59.17;;;;;;;;;;5001326;28;20050;-61
2022/01/26 06:16:44;;;;;;;135.47;59.57;;;;;;;;;;4991335;28;20038;-62
2022/01/26 06:19:10;;;;;;;134.30;59.53;;;;;;;;;;5025115;28;20092;-61
2022/01/26 06:21:36;;;;;;;134.73;60.43;;;;;;;;;;4989147;28;20041;-62
2022/01/26 06:24:02;;;;;;;136.83;59.83;;;;;;;;;;4987142;28;20843;-62
2022/01/26 06:26:28;;;;;;;127.70;58.87;;;;;;;;;;4987595;28;20492;-62
2022/01/26 06:28:54;;;;;;;139.30;61.47;;;;;;;;;;4992939;28;20514;-62
2022/01/26 06:31:26;;;;;;;140.03;59.37;;;;;;;;;;5007094;28;20447;-62
2022/01/26 06:33:52;;;;;;;137.77;60.70;;;;;;;;;;5007634;28;20072;-62
2022/01/26 06:36:18;;;;;;;137.97;58.73;;;;;;;;;;5007921;28;20034;-62
2022/01/26 06:38:46;;;;;;;144.43;61.77;;;;;;;;;;5006891;28;20030;-62
2022/01/26 06:41:14;;;;;;;145.27;62.20;;;;;;;;;;5007102;28;20041;-62
2022/01/26 06:43:50;;;;;;;150.73;64.90;;;;;;;;;;5003090;28;20042;-62
2022/01/26 06:46:26;;;;;;;141.83;61.80;;;;;;;;;;5025262;28;20419;-63
2022/01/26 06:51:37;;;;;;;137.70;61.78;;;;;;;;;;5005145;28;20093;-62
2022/01/26 06:54:03;;;;;;;140.93;61.57;;;;;;;;;;5003485;28;20069;-62
2022/01/26 06:56:29;;;;;;;143.77;63.07;;;;;;;;;;5007887;28;20084;-62
2022/01/26 06:58:55;;;;;;;147.30;62.47;;;;;;;;;;5006085;28;20030;-62
2022/01/26 07:01:21;;;;;;;145.20;63.63;;;;;;;;;;5010138;28;20494;-62
2022/01/26 07:03:47;;;;;;;149.93;61.83;;;;;;;;;;5007551;28;20034;-62
2022/01/26 07:06:13;;;;;;;143.30;61.20;;;;;;;;;;5009932;28;20034;-62
2022/01/26 07:08:39;;;;;;;143.27;60.80;;;;;;;;;;5008458;28;20046;-62
2022/01/26 07:11:05;;;;;;;144.13;61.20;;;;;;;;;;5009131;28;20037;-62
2022/01/26 07:13:31;;;;;;;149.13;63.70;;;;;;;;;;5023367;28;20076;-62
2022/01/26 07:21:27;;;;;;;147.13;60.95;;;;;;;;;;5001262;28;20045;-62
2022/01/26 07:23:54;;;;;;;148.73;60.90;;;;;;;;;;4995464;28;20034;-62
2022/01/26 07:26:21;;;;;;;151.23;63.83;;;;;;;;;;4988989;28;20124;-62
2022/01/26 07:28:47;;;;;;;152.63;62.27;;;;;;;;;;5002558;28;20042;-61
2022/01/26 07:31:13;;;;;;;146.40;63.43;;;;;;;;;;4995256;28;20050;-62
2022/01/26 07:33:41;;;;;;;147.33;64.00;;;;;;;;;;4990897;28;20523;-62
2022/01/26 07:36:07;;;;;;;152.73;63.43;;;;;;;;;;5010459;28;20050;-62
2022/01/26 07:38:33;;;;;;;152.47;64.73;;;;;;;;;;5042307;28;20472;-62
2022/01/26 07:40:59;;;;;;;155.57;60.93;;;;;;;;;;5008832;28;20037;-62
2022/01/26 07:43:25;;;;;;;150.67;63.20;;;;;;;;;;5009406;28;20041;-62
2022/01/26 07:45:51;;;;;;;149.17;61.80;;;;;;;;;;4993626;28;20034;-62
2022/01/26 07:48:18;;;;;;;146.63;62.13;;;;;;;;;;4991339;28;20555;-62
2022/01/26 07:50:45;;;;;;;143.93;61.10;;;;;;;;;;4989571;28;20035;-62
2022/01/26 07:53:15;;;;;;;148.93;62.00;;;;;;;;;;5008440;28;20034;-62
2022/01/26 07:55:41;;;;;;;154.00;64.07;;;;;;;;;;5008405;28;20052;-62
2022/01/26 07:58:09;;;;;;;150.53;63.37;;;;;;;;;;5008107;28;20084;-62
2022/01/26 08:00:35;;;;;;;148.73;62.53;;;;;;;;;;5006975;28;20435;-62
2022/01/26 08:03:01;;;;;;;150.80;64.23;;;;;;;;;;5008456;28;20125;-62
2022/01/26 08:05:27;;;;;;;146.67;61.03;;;;;;;;;;4996954;28;20052;-62
2022/01/26 08:07:53;;;;;;;149.63;62.73;;;;;;;;;;5029184;28;20073;-62
2022/01/26 08:10:19;;;;;;;137.90;58.03;;;;;;;;;;4994310;28;20073;-63
2022/01/26 08:12:45;;;;;;;153.50;62.40;;;;;;;;;;4996417;28;20092;-63
2022/01/26 08:15:14;;;;;;;157.27;64.83;;;;;;;;;;5001972;28;20046;-62
2022/01/26 08:17:40;;;;;;;144.80;62.83;;;;;;;;;;5002723;28;20044;-63
2022/01/26 08:20:08;;;;;;;151.83;62.77;;;;;;;;;;5028535;28;20069;-63
2022/01/26 08:22:34;;;;;;;141.43;62.73;;;;;;;;;;4998781;28;20061;-62
2022/01/26 08:25:00;;;;;;;151.23;59.83;;;;;;;;;;4990386;28;20400;-62
2022/01/26 08:27:31;;;;;;;136.37;59.37;;;;;;;;;;4976343;28;20042;-62
2022/01/26 08:30:05;;;;;;;139.23;61.43;;;;;;;;;;4994316;28;20478;-61
2022/01/26 08:32:31;;;;;;;143.87;61.73;;;;;;;;;;5026735;28;20481;-62
2022/01/26 08:34:57;;;;;;;151.37;62.47;;;;;;;;;;4993593;28;20400;-62
2022/01/26 08:37:23;;;;;;;149.20;62.70;;;;;;;;;;4990679;28;20041;-62
2022/01/26 08:39:49;;;;;;;141.33;63.90;;;;;;;;;;4993303;28;20109;-62
2022/01/26 08:42:15;;;;;;;141.13;61.90;;;;;;;;;;4982612;28;20047;-63
2022/01/26 08:44:41;;;;;;;148.97;62.07;;;;;;;;;;4990488;28;20396;-63
2022/01/26 08:47:08;;;;;;;150.20;62.47;;;;;;;;;;4995086;28;20050;-61
2022/01/26 08:49:34;;;;;;;154.63;63.60;;;;;;;;;;4986137;28;20146;-62
2022/01/26 08:52:00;;;;;;;156.13;62.87;;;;;;;;;;4996734;28;20054;-62
2022/01/26 08:54:26;;;;;;;150.43;61.33;;;;;;;;;;4991874;28;20117;-63
2022/01/26 08:56:53;;;;;;;138.40;59.83;;;;;;;;;;4997195;28;20452;-62
2022/01/26 08:59:21;;;;;;;148.77;61.97;;;;;;;;;;4994038;28;20388;-62
2022/01/26 09:01:47;;;;;;;147.13;61.07;;;;;;;;;;4991048;28;20081;-62
2022/01/26 09:04:13;;;;;;;145.30;62.67;;;;;;;;;;4990708;28;20092;-62
2022/01/26 09:06:50;;;;;;;147.67;60.70;;;;;;;;;;5000184;28;20101;-62
2022/01/26 09:09:17;;;;;;;152.00;64.60;;;;;;;;;;5019066;28;20038;-62
2022/01/26 09:11:43;;;;;;;141.63;63.17;;;;;;;;;;4985952;28;20046;-61
2022/01/26 09:14:12;;;;;;;152.00;65.93;;;;;;;;;;5005403;28;20040;-62
2022/01/26 09:16:38;;;;;;;138.93;61.67;;;;;;;;;;4997517;28;20061;-63
2022/01/26 09:19:19;;;;;;;138.17;61.93;;;;;;;;;;4986300;28;20476;-62
2022/01/26 09:21:46;;;;;;;147.03;62.67;;;;;;;;;;4988992;28;20042;-63
2022/01/26 09:24:13;;;;;;;148.50;62.13;;;;;;;;;;4998418;28;20037;-63
2022/01/26 09:26:39;;;;;;;143.70;61.63;;;;;;;;;;5001350;28;20033;-62
2022/01/26 09:29:06;;;;;;;144.90;60.43;;;;;;;;;;5006484;28;20044;-63
2022/01/26 09:31:32;;;;;;;146.03;61.37;;;;;;;;;;4988275;28;20054;-62
2022/01/26 09:33:58;;;;;;;148.03;62.43;;;;;;;;;;4990300;28;20064;-63
2022/01/26 09:36:24;;;;;;;141.07;61.57;;;;;;;;;;4979099;28;20061;-63
2022/01/26 09:38:50;;;;;;;146.83;63.73;;;;;;;;;;4987349;28;20039;-62
2022/01/26 09:41:16;;;;;;;153.07;63.97;;;;;;;;;;5032890;28;20044;-62
2022/01/26 09:43:44;;;;;;;146.03;61.63;;;;;;;;;;5006908;28;20387;-62
2022/01/26 09:46:13;;;;;;;149.87;62.03;;;;;;;;;;4987968;28;20086;-62
2022/01/26 09:48:41;;;;;;;144.67;61.70;;;;;;;;;;4996779;28;20073;-62
2022/01/26 09:51:08;;;;;;;139.63;61.67;;;;;;;;;;5002739;28;20054;-62
2022/01/26 09:53:35;;;;;;;134.13;59.13;;;;;;;;;;5001408;28;20133;-62
2022/01/26 09:56:02;;;;;;;152.30;61.17;;;;;;;;;;5006191;28;20496;-62
2022/01/26 09:58:28;;;;;;;140.47;59.30;;;;;;;;;;5034743;28;20038;-62
2022/01/26 10:00:58;;;;;;;143.37;62.60;;;;;;;;;;5004893;28;20042;-63
2022/01/26 10:03:28;;;;;;;144.20;59.77;;;;;;;;;;5032920;28;20487;-62
2022/01/26 10:05:54;;;;;;;136.90;60.40;;;;;;;;;;5002996;28;20052;-62
2022/01/26 10:17:02;;;;;;;;;;;;;;;;;;4992972;28;20511;-61
2022/01/26 10:19:18;;;;;;;132.03;57.87;;;;;;;;;;5005103;28;20363;-62
2022/01/26 10:21:45;;;;;;;132.97;59.00;;;;;;;;;;4991386;28;20042;-62
2022/01/26 10:24:12;;;;;;;131.00;59.43;;;;;;;;;;4986586;28;20038;-62
2022/01/26 10:26:38;;;;;;;136.73;59.10;;;;;;;;;;4992611;28;20030;-62
2022/01/26 10:29:05;;;;;;;133.40;59.20;;;;;;;;;;5005734;28;20034;-62
2022/01/26 10:31:33;;;;;;;137.77;60.03;;;;;;;;;;5007326;28;20093;-62
2022/01/26 10:34:00;;;;;;;128.47;58.20;;;;;;;;;;5004644;28;20041;-62
2022/01/26 10:36:34;;;;;;;118.30;55.70;;;;;;;;;;5002385;28;20049;-63
2022/01/26 10:39:06;;;;;;;122.72;55.95;;;;;;;;;;5005762;28;20045;-62
2022/01/26 10:41:33;;;;;;;123.20;55.07;;;;;;;;;;5006652;28;20038;-62
2022/01/26 10:44:01;;;;;;;123.70;58.27;;;;;;;;;;5004760;28;20041;-62
2022/01/26 10:46:29;;;;;;;114.77;52.40;;;;;;;;;;5007322;28;20129;-63
2022/01/26 10:49:17;;;;;;;124.77;55.57;;;;;;;;;;5015733;28;20183;-63
2022/01/26 10:54:35;;;;;;;118.80;53.60;;;;;;;;;;5003817;28;20045;-62
2022/01/26 10:57:02;;;;;;;108.93;51.03;;;;;;;;;;5000357;28;20034;-62
2022/01/26 10:59:29;;;;;;;114.23;53.37;;;;;;;;;;5004190;28;20614;-62
2022/01/26 11:01:59;;;;;;;106.13;50.90;;;;;;;;;;5018237;28;20035;-63
2022/01/26 11:04:26;;;;;;;110.27;50.47;;;;;;;;;;4998525;28;20540;-62
2022/01/26 11:06:54;;;;;;;109.17;48.80;;;;;;;;;;4988435;28;20049;-62
2022/01/26 11:09:24;;;;;;;115.17;52.07;;;;;;;;;;4982794;28;20031;-62
2022/01/26 11:12:00;;;;;;;111.00;47.20;;;;;;;;;;5034711;28;20103;-62
2022/01/26 11:14:27;;;;;;;102.63;45.00;;;;;;;;;;5005555;28;20072;-62
2022/01/26 11:16:56;;;;;;;98.97;45.50;;;;;;;;;;5002216;28;20038;-62
2022/01/26 11:22:29;;;;;;;100.57;44.30;;;;;;;;;;5000540;28;20049;-62
2022/01/26 11:24:55;;;;;;;101.77;45.00;;;;;;;;;;5005295;28;20038;-62
2022/01/26 11:27:22;;;;;;;98.33;42.37;;;;;;;;;;5006316;28;20113;-62
2022/01/26 11:29:52;;;;;;;109.90;45.33;;;;;;;;;;5000685;28;20085;-62
2022/01/26 11:32:31;;;;;;;96.00;44.07;;;;;;;;;;4993862;28;20042;-62
2022/01/26 11:34:57;;;;;;;83.30;39.53;;;;;;;;;;5004362;28;20042;-62
2022/01/26 11:37:45;;;;;;;92.40;42.20;;;;;;;;;;5000582;28;20049;-62
2022/01/26 11:46:06;;;;;;;95.83;41.00;;;;;;;;;;5002262;28;20099;-62
2022/01/26 11:48:32;;;;;;;94.83;42.57;;;;;;;;;;5004637;28;20052;-62
2022/01/26 11:51:03;;;;;;;90.90;40.83;;;;;;;;;;5006616;28;20160;-62
2022/01/26 11:53:29;;;;;;;89.27;41.27;;;;;;;;;;5006254;28;20420;-62
2022/01/26 11:56:03;;;;;;;84.80;40.83;;;;;;;;;;5006669;28;20063;-62
2022/01/26 11:58:32;;;;;;;84.70;38.97;;;;;;;;;;5004226;28;20480;-62
2022/01/26 12:01:25;;;;;;;84.90;40.43;;;;;;;;;;5006832;28;20124;-62
2022/01/26 12:04:06;;;;;;;91.53;40.97;;;;;;;;;;5007324;28;20088;-62
2022/01/26 12:06:36;;;;;;;96.03;41.67;;;;;;;;;;5002973;28;20046;-62
2022/01/26 12:09:03;;;;;;;84.00;40.37;;;;;;;;;;4982197;28;20041;-62
2022/01/26 12:11:30;;;;;;;91.20;41.83;;;;;;;;;;4990869;28;20074;-62
2022/01/26 12:14:03;;;;;;;94.13;41.87;;;;;;;;;;4989343;28;20121;-62
2022/01/26 12:16:45;;;;;;;97.00;42.83;;;;;;;;;;4984261;28;20043;-62
2022/01/26 12:19:49;;;;;;;92.57;43.53;;;;;;;;;;4990831;28;20045;-62
2022/01/26 12:34:07;;;;;;;94.30;43.63;;;;;;;;;;4994783;28;20057;-61
2022/01/26 12:39:14;;;;;;;89.40;43.30;;;;;;;;;;4986572;28;20046;-61
2022/01/26 12:41:48;;;;;;;93.73;45.37;;;;;;;;;;4985587;28;20057;-61
2022/01/26 12:44:14;;;;;;;91.63;43.70;;;;;;;;;;5011305;28;20057;-61
2022/01/26 12:46:41;;;;;;;86.53;40.30;;;;;;;;;;5004030;28;20524;-61
2022/01/26 12:49:13;;;;;;;81.93;39.83;;;;;;;;;;5006815;28;20057;-61
2022/01/26 12:51:44;;;;;;;85.33;41.43;;;;;;;;;;5005812;28;20034;-61
2022/01/26 12:54:10;;;;;;;85.70;42.10;;;;;;;;;;5004377;28;20039;-61
2022/01/26 12:56:36;;;;;;;92.80;44.33;;;;;;;;;;5000326;28;20107;-61
2022/01/26 12:59:21;;;;;;;93.07;46.13;;;;;;;;;;5004434;28;20068;-61
2022/01/26 13:01:52;;;;;;;97.00;45.78;;;;;;;;;;4987000;28;20046;-61
2022/01/26 13:04:18;;;;;;;87.20;42.53;;;;;;;;;;4982650;28;20525;-62
2022/01/26 13:06:52;;;;;;;83.80;42.10;;;;;;;;;;4986811;28;20037;-61
2022/01/26 13:09:18;;;;;;;89.72;42.80;;;;;;;;;;4992063;28;20542;-62
2022/01/26 13:11:51;;;;;;;88.67;43.97;;;;;;;;;;5003110;28;20495;-62
2022/01/26 13:14:32;;;;;;;92.83;42.90;;;;;;;;;;5003933;28;20483;-62
2022/01/26 13:25:32;;;;;;;90.57;43.53;;;;;;;;;;4990101;28;20044;-61
2022/01/26 13:28:23;;;;;;;89.10;44.83;;;;;;;;;;4991545;28;20041;-62
2022/01/26 13:41:31;;;;;;;92.90;45.78;;;;;;;;;;4991012;28;20041;-61
2022/01/26 13:51:43;;;;;;;92.15;44.92;;;;;;;;;;5004894;28;20107;-61
2022/01/26 13:59:17;;;;;;;83.10;41.57;;;;;;;;;;5006944;28;20065;-61
2022/01/26 14:01:45;;;;;;;87.53;43.63;;;;;;;;;;5001065;28;20041;-58
2022/01/26 14:04:12;;;;;;;90.30;43.70;;;;;;;;;;5007031;28;20078;-61
2022/01/26 14:06:39;;;;;;;80.37;41.30;;;;;;;;;;5005246;28;20114;-69
2022/01/26 14:09:05;;;;;;;79.87;38.97;;;;;;;;;;5037345;28;20497;-68
2022/01/26 14:11:31;;;;;;;83.40;40.80;;;;;;;;;;5004109;28;20053;-65
2022/01/26 14:13:58;;;;;;;89.27;43.10;;;;;;;;;;5038667;28;20487;-67
2022/01/26 14:16:26;;;;;;;84.63;41.93;;;;;;;;;;5006855;28;20056;-66
2022/01/26 14:26:56;;;;;;;96.77;46.17;;;;;;;;;;4988165;28;20044;-63
2022/01/26 14:29:58;;;;;;;98.47;45.70;;;;;;;;;;4979128;28;20051;-63
2022/01/26 15:22:48;;;;;;;94.20;47.58;;;;;;;;;;5001141;28;20065;-61
2022/01/26 15:40:35;;;;;;;94.70;45.43;;;;;;;;;;4990952;28;20034;-61
2022/01/26 15:50:50;;;;;;;86.57;43.00;;;;;;;;;;4985622;28;20411;-61
2022/01/26 15:59:08;;;;;;;97.60;44.40;;;;;;;;;;4992769;28;20084;-62
2022/01/26 16:36:57;;;;;;;92.03;42.25;;;;;;;;;;5006677;28;20053;-61
2022/01/26 18:50:06;;;;;;;96.63;46.73;;;;;;;;;;5007482;28;20058;-66
2022/01/26 18:52:38;;;;;;;99.47;46.73;;;;;;;;;;5009340;28;20050;-66
2022/01/26 18:55:12;;;;;;;104.77;49.97;;;;;;;;;;5009893;28;20137;-67
2022/01/26 18:57:39;;;;;;;96.77;45.17;;;;;;;;;;5007691;28;20041;-67
2022/01/26 19:00:07;;;;;;;96.03;46.57;;;;;;;;;;5012329;28;20257;-66
2022/01/26 19:02:34;;;;;;;100.70;47.77;;;;;;;;;;5039883;28;20038;-65
2022/01/26 19:05:05;;;;;;;99.23;45.07;;;;;;;;;;5010093;28;20041;-66
2022/01/26 19:07:33;;;;;;;104.70;48.63;;;;;;;;;;5007823;28;20038;-65
2022/01/26 19:10:06;;;;;;;96.10;45.70;;;;;;;;;;5013396;28;20488;-65
2022/01/26 19:12:35;;;;;;;92.53;44.60;;;;;;;;;;5010213;28;20519;-67
2022/01/26 19:15:07;;;;;;;98.53;45.30;;;;;;;;;;5004102;28;20083;-67
2022/01/26 19:17:41;;;;;;;100.17;44.67;;;;;;;;;;5009625;28;20050;-65
2022/01/26 19:20:31;;;;;;;98.35;46.22;;;;;;;;;;5010017;28;20042;-66
2022/01/26 19:25:41;;;;;;;;;;;;;;;;;;4999561;28;20050;-66
2022/01/26 19:28:22;;;;;;;88.75;42.65;;;;;;;;;;5000016;28;20016;-66
2022/01/26 19:31:21;;;;;;;90.17;43.13;;;;;;;;;;4990121;28;20066;-65
2022/01/26 19:52:28;;;;;;;102.82;47.88;;;;;;;;;;4997743;28;20052;-65
2022/01/26 19:54:54;;;;;;;89.20;43.33;;;;;;;;;;4995317;28;20057;-65
2022/01/26 19:57:20;;;;;;;98.53;47.17;;;;;;;;;;5010927;28;20050;-65
2022/01/26 19:59:47;;;;;;;95.50;45.53;;;;;;;;;;5011327;28;20448;-65
2022/01/26 20:02:13;;;;;;;101.93;46.83;;;;;;;;;;5008545;28;20034;-65
2022/01/26 20:04:39;;;;;;;102.03;46.87;;;;;;;;;;5003950;28;20040;-65
2022/01/26 20:07:15;;;;;;;94.67;45.47;;;;;;;;;;5004353;28;20045;-66
2022/01/26 20:09:55;;;;;;;98.47;47.30;;;;;;;;;;5002794;28;20038;-66
2022/01/26 20:12:37;;;;;;;109.00;47.70;;;;;;;;;;5004992;28;20046;-66
2022/01/26 20:15:03;;;;;;;93.23;44.33;;;;;;;;;;4987447;28;20389;-66
2022/01/26 20:17:32;;;;;;;103.17;47.57;;;;;;;;;;4989404;28;20042;-66
2022/01/26 20:20:00;;;;;;;110.20;49.60;;;;;;;;;;4997860;28;20038;-66
2022/01/26 20:22:29;;;;;;;106.00;47.43;;;;;;;;;;4988722;28;20061;-66
2022/01/26 20:24:58;;;;;;;104.23;50.77;;;;;;;;;;4998568;28;20046;-65
2022/01/26 20:27:24;;;;;;;104.53;47.93;;;;;;;;;;4987673;28;20050;-65
2022/01/26 20:30:01;;;;;;;97.23;48.53;;;;;;;;;;4995473;28;20041;-66
2022/01/26 20:32:29;;;;;;;107.73;49.67;;;;;;;;;;5005972;28;20053;-66
2022/01/26 20:34:56;;;;;;;117.70;51.30;;;;;;;;;;5008966;28;20535;-66
2022/01/26 20:37:23;;;;;;;111.23;50.47;;;;;;;;;;5008199;28;20046;-66
2022/01/26 20:39:56;;;;;;;111.17;51.97;;;;;;;;;;5028224;28;20046;-66
2022/01/26 20:42:27;;;;;;;106.23;50.37;;;;;;;;;;5008396;28;20053;-66
2022/01/26 20:44:54;;;;;;;111.53;49.93;;;;;;;;;;5007006;28;20037;-65
2022/01/26 20:47:21;;;;;;;108.23;49.97;;;;;;;;;;5006598;28;20400;-65
2022/01/26 20:49:50;;;;;;;108.17;51.80;;;;;;;;;;5005199;28;20046;-65
2022/01/26 20:52:17;;;;;;;114.67;55.30;;;;;;;;;;4997685;28;20133;-66
2022/01/26 20:54:45;;;;;;;112.50;51.57;;;;;;;;;;4992497;28;20042;-66
2022/01/26 20:57:11;;;;;;;111.13;52.40;;;;;;;;;;4985730;28;20039;-66
2022/01/26 20:59:38;;;;;;;116.90;52.73;;;;;;;;;;4988854;28;20077;-66
2022/01/26 21:02:05;;;;;;;114.00;52.17;;;;;;;;;;5001276;28;20729;-65
2022/01/26 21:04:32;;;;;;;107.93;52.00;;;;;;;;;;5002404;28;20036;-66
2022/01/26 21:07:00;;;;;;;111.10;52.00;;;;;;;;;;4982939;28;20085;-66
2022/01/26 21:09:27;;;;;;;113.50;52.37;;;;;;;;;;5024063;28;20038;-67
2022/01/26 21:11:54;;;;;;;106.73;51.63;;;;;;;;;;5017217;28;20130;-66
2022/01/26 21:14:23;;;;;;;113.13;52.87;;;;;;;;;;4997977;28;20034;-66
2022/01/26 21:16:49;;;;;;;117.07;51.47;;;;;;;;;;5001811;28;20730;-67
2022/01/26 21:19:18;;;;;;;127.07;54.47;;;;;;;;;;5006921;28;20042;-66
2022/01/26 21:21:44;;;;;;;120.20;54.77;;;;;;;;;;5005507;28;20729;-65
2022/01/26 21:24:12;;;;;;;124.00;53.73;;;;;;;;;;4996327;28;20027;-67
2022/01/26 21:26:39;;;;;;;117.37;51.20;;;;;;;;;;4985505;28;20035;-66
2022/01/26 21:29:05;;;;;;;118.40;51.43;;;;;;;;;;4989219;28;20047;-66
2022/01/26 21:31:32;;;;;;;120.67;52.83;;;;;;;;;;5004032;28;20037;-66
2022/01/26 21:33:59;;;;;;;122.93;51.80;;;;;;;;;;4999178;28;20540;-66
2022/01/26 21:36:25;;;;;;;126.23;53.60;;;;;;;;;;4997957;28;20499;-67
2022/01/26 21:38:52;;;;;;;117.63;51.80;;;;;;;;;;5003662;28;20042;-66
2022/01/26 21:41:21;;;;;;;120.47;51.83;;;;;;;;;;4989985;28;20046;-67
2022/01/26 21:43:48;;;;;;;123.30;53.30;;;;;;;;;;4984776;28;20042;-66
2022/01/26 21:46:14;;;;;;;115.53;50.27;;;;;;;;;;4989699;28;20030;-67
2022/01/26 21:48:43;;;;;;;112.30;48.77;;;;;;;;;;4991775;28;20068;-67
2022/01/26 21:51:09;;;;;;;121.57;51.50;;;;;;;;;;5001935;28;20041;-66
2022/01/26 21:53:36;;;;;;;109.53;48.03;;;;;;;;;;4991396;28;20138;-67